Time;durP1;ratioP1;P1;durP2;ratioP2;P2;SDS_P1;SDS_P2;PMS_P1;PMS_P2;Temp;Humidity;BMP_temperature;BMP_pressure;BME280_temperature;BME280_humidity;BME280_pressure;Samples;Min_cycle;Max_cycle;Signal;HPM_P1;HPM_P2
2022/07/09 00:02:13;;;;;;;2.20;2.00;;;20.20;53.20;;;;;;5047227;28;20491;-79
2022/07/09 00:04:41;;;;;;;2.33;2.13;;;20.10;54.00;;;;;;5037882;28;20562;-80
2022/07/09 00:07:11;;;;;;;4.50;1.70;;;20.20;55.50;;;;;;5045291;28;20455;-79
2022/07/09 00:09:39;;;;;;;3.40;1.70;;;20.20;54.70;;;;;;5044045;28;20451;-79
2022/07/09 00:12:08;;;;;;;2.27;1.70;;;20.20;53.50;;;;;;5049637;28;20489;-79
2022/07/09 00:14:37;;;;;;;1.70;1.60;;;20.10;51.40;;;;;;5045019;28;20447;-79
2022/07/09 00:17:05;;;;;;;3.93;1.83;;;20.10;54.80;;;;;;5045863;28;20459;-78
2022/07/09 00:19:33;;;;;;;2.97;1.50;;;20.00;55.00;;;;;;5055345;28;20562;-80
2022/07/09 00:22:02;;;;;;;4.40;1.80;;;20.00;54.70;;;;;;5051459;28;20483;-81
2022/07/09 00:24:31;;;;;;;2.13;1.83;;;20.00;53.90;;;;;;5038995;28;20454;-80
2022/07/09 00:26:59;;;;;;;3.10;1.60;;;20.00;54.10;;;;;;5042922;28;20452;-81
2022/07/09 00:29:27;;;;;;;2.23;1.50;;;19.90;53.50;;;;;;5042035;28;20470;-81
2022/07/09 00:31:56;;;;;;;5.27;1.70;;;19.90;54.90;;;;;;5044541;28;21003;-81
2022/07/09 00:34:25;;;;;;;1.80;1.67;;;19.90;52.30;;;;;;5038563;28;20990;-82
2022/07/09 00:36:53;;;;;;;3.20;1.90;;;19.80;55.00;;;;;;5042245;28;21076;-82
2022/07/09 00:39:21;;;;;;;1.97;1.77;;;19.80;54.90;;;;;;5044206;28;20538;-81
2022/07/09 00:41:51;;;;;;;2.40;1.50;;;19.80;56.00;;;;;;5046317;28;20480;-81
2022/07/09 00:44:19;;;;;;;2.10;1.40;;;19.80;56.30;;;;;;5046116;28;20949;-82
2022/07/09 00:46:47;;;;;;;4.83;1.90;;;19.80;55.80;;;;;;5042546;28;20455;-81
2022/07/09 00:49:16;;;;;;;2.20;1.87;;;19.80;56.30;;;;;;5044068;28;20455;-80
2022/07/09 00:51:44;;;;;;;2.60;1.60;;;19.70;54.60;;;;;;5046809;28;20614;-81
2022/07/09 00:54:13;;;;;;;2.23;1.63;;;19.70;54.10;;;;;;5043240;28;20544;-81
2022/07/09 00:56:41;;;;;;;3.77;1.60;;;19.60;51.50;;;;;;5036667;28;20453;-81
2022/07/09 00:59:13;;;;;;;2.83;2.10;;;19.60;69.60;;;;;;5045296;28;20456;-81
2022/07/09 01:01:41;;;;;;;1.60;1.50;;;19.60;51.70;;;;;;5042835;28;20483;-81
2022/07/09 01:04:09;;;;;;;3.60;1.70;;;19.60;52.60;;;;;;5044404;28;20440;-81
2022/07/09 01:06:37;;;;;;;1.93;1.60;;;19.60;52.80;;;;;;5040800;28;21853;-81
2022/07/09 01:09:07;;;;;;;2.20;1.73;;;19.60;54.90;;;;;;5044453;28;20452;-81
2022/07/09 01:11:35;;;;;;;6.33;4.07;;;19.60;55.30;;;;;;5043418;28;20467;-82
2022/07/09 01:14:03;;;;;;;2.53;2.10;;;19.60;55.60;;;;;;5045031;28;20460;-81
2022/07/09 01:16:34;;;;;;;3.23;2.23;;;19.60;54.10;;;;;;5034253;28;20459;-81
2022/07/09 01:19:02;;;;;;;1.87;1.67;;;19.60;53.90;;;;;;5042490;28;20550;-81
2022/07/09 01:21:33;;;;;;;1.90;1.80;;;19.60;54.80;;;;;;5047013;28;20490;-80
2022/07/09 01:24:01;;;;;;;1.50;1.40;;;19.50;54.20;;;;;;5043894;28;20471;-80
2022/07/09 01:26:29;;;;;;;2.40;1.83;;;19.50;54.60;;;;;;5041024;28;20447;-81
2022/07/09 01:28:57;;;;;;;2.30;1.60;;;19.40;53.60;;;;;;5042099;28;20463;-81
2022/07/09 01:31:26;;;;;;;2.30;1.50;;;19.40;55.60;;;;;;5045407;28;20448;-81
2022/07/09 01:33:54;;;;;;;2.37;2.07;;;19.40;54.60;;;;;;5045826;28;20888;-82
2022/07/09 01:36:22;;;;;;;1.97;1.87;;;19.40;55.00;;;;;;5042371;28;20466;-81
2022/07/09 01:38:52;;;;;;;3.50;1.63;;;19.30;54.70;;;;;;5041203;28;20462;-82
2022/07/09 01:41:20;;;;;;;2.23;1.80;;;19.40;56.60;;;;;;5043876;28;20482;-82
2022/07/09 01:43:48;;;;;;;1.80;1.50;;;19.40;57.30;;;;;;5043431;28;20491;-82
2022/07/09 01:46:16;;;;;;;1.97;1.73;;;19.40;57.20;;;;;;5058909;28;20493;-82
2022/07/09 01:48:44;;;;;;;1.63;1.53;;;19.40;57.10;;;;;;5044302;28;20448;-83
2022/07/09 01:51:14;;;;;;;1.90;1.60;;;19.30;56.90;;;;;;5043769;28;20447;-82
2022/07/09 01:53:42;;;;;;;1.80;1.43;;;19.30;54.10;;;;;;5041122;28;20509;-81
2022/07/09 01:56:12;;;;;;;3.20;1.87;;;19.30;56.30;;;;;;5044812;28;21110;-81
2022/07/09 01:58:40;;;;;;;2.17;1.97;;;19.20;56.60;;;;;;5037179;28;20440;-80
2022/07/09 02:01:08;;;;;;;2.00;1.53;;;19.20;57.60;;;;;;5032727;28;20490;-80
2022/07/09 02:03:37;;;;;;;2.37;2.17;;;19.20;57.40;;;;;;5043324;28;20453;-80
2022/07/09 02:06:06;;;;;;;1.93;1.50;;;19.20;56.60;;;;;;5043203;28;20448;-80
2022/07/09 02:08:34;;;;;;;2.00;1.50;;;19.10;55.30;;;;;;5041807;28;20814;-80
2022/07/09 02:11:03;;;;;;;2.47;1.30;;;19.10;57.00;;;;;;5043513;28;20462;-80
2022/07/09 02:13:33;;;;;;;1.83;1.73;;;19.10;55.60;;;;;;5047868;28;20474;-81
2022/07/09 02:16:01;;;;;;;2.87;1.70;;;18.50;54.10;;;;;;5041841;28;20525;-81
2022/07/09 02:18:30;;;;;;;3.03;1.50;;;19.00;54.50;;;;;;5042089;28;20484;-81
2022/07/09 02:20:59;;;;;;;1.30;1.20;;;19.00;55.00;;;;;;5049138;28;20542;-82
2022/07/09 02:23:27;;;;;;;2.13;1.70;;;19.00;55.10;;;;;;5045752;28;20464;-82
2022/07/09 02:25:55;;;;;;;3.10;1.90;;;18.90;54.60;;;;;;5042048;28;20513;-82
2022/07/09 02:28:23;;;;;;;1.63;1.53;;;18.90;55.00;;;;;;5047588;28;20829;-82
2022/07/09 02:30:53;;;;;;;1.80;1.70;;;18.90;55.40;;;;;;5041639;28;20459;-81
2022/07/09 02:33:21;;;;;;;5.37;2.13;;;18.90;56.20;;;;;;5043471;28;20467;-82
2022/07/09 02:35:56;;;;;;;2.90;1.57;;;18.90;56.80;;;;;;5037882;28;20450;-80
2022/07/09 02:38:24;;;;;;;2.00;1.63;;;18.90;55.00;;;;;;5045232;28;20958;-81
2022/07/09 02:40:53;;;;;;;4.20;1.60;;;18.90;56.10;;;;;;5040611;28;20460;-81
2022/07/09 02:43:21;;;;;;;3.83;1.90;;;18.80;55.70;;;;;;5045841;28;21167;-82
2022/07/09 02:45:51;;;;;;;2.73;1.60;;;18.80;55.90;;;;;;5039442;28;20464;-81
2022/07/09 02:48:21;;;;;;;3.40;1.57;;;18.80;56.40;;;;;;5039532;28;20525;-81
2022/07/09 02:50:50;;;;;;;1.87;1.47;;;18.70;55.40;;;;;;5045091;28;20485;-81
2022/07/09 02:53:19;;;;;;;2.20;1.80;;;18.80;55.60;;;;;;5043693;28;20491;-81
2022/07/09 02:55:47;;;;;;;2.10;1.70;;;18.70;57.20;;;;;;5022181;28;20525;-81
2022/07/09 02:58:15;;;;;;;2.53;1.70;;;18.70;57.30;;;;;;5044006;28;21249;-82
2022/07/09 03:00:43;;;;;;;4.00;2.47;;;18.80;57.40;;;;;;5039386;28;20483;-81
2022/07/09 03:03:11;;;;;;;2.53;2.03;;;18.70;57.60;;;;;;5043425;28;20495;-82
2022/07/09 03:05:41;;;;;;;2.00;1.63;;;18.70;56.70;;;;;;5037791;28;20466;-82
2022/07/09 03:08:09;;;;;;;1.80;1.70;;;18.70;76.30;;;;;;5040891;28;20529;-82
2022/07/09 03:10:37;;;;;;;2.47;1.83;;;18.70;58.70;;;;;;5043802;28;20536;-82
2022/07/09 03:13:06;;;;;;;1.70;1.60;;;18.70;58.80;;;;;;5042543;28;20475;-82
2022/07/09 03:15:39;;;;;;;1.87;1.57;;;18.60;58.10;;;;;;5044828;28;20454;-82
2022/07/09 03:18:08;;;;;;;2.33;1.53;;;18.60;58.90;;;;;;5039160;28;20455;-82
2022/07/09 03:20:36;;;;;;;1.60;1.50;;;18.60;58.60;;;;;;5047984;28;20471;-82
2022/07/09 03:23:06;;;;;;;3.27;1.83;;;18.60;59.40;;;;;;5046676;28;20602;-84
2022/07/09 03:25:34;;;;;;;2.20;1.50;;;18.60;60.40;;;;;;5039941;28;20550;-82
2022/07/09 03:28:02;;;;;;;2.70;1.87;;;18.60;77.70;;;;;;5044811;28;20454;-80
2022/07/09 03:30:31;;;;;;;2.07;1.50;;;19.00;60.00;;;;;;5040292;28;20459;-81
2022/07/09 03:32:59;;;;;;;1.63;1.53;;;18.50;57.60;;;;;;5041604;28;20508;-80
2022/07/09 03:35:28;;;;;;;2.67;2.47;;;18.50;57.70;;;;;;5043331;28;20453;-80
2022/07/09 03:37:56;;;;;;;3.53;1.57;;;18.50;57.90;;;;;;5040267;28;20999;-80
2022/07/09 03:40:26;;;;;;;2.23;1.60;;;18.40;57.10;;;;;;5045914;28;20804;-79
2022/07/09 03:42:54;;;;;;;2.07;1.50;;;18.40;55.60;;;;;;5045530;28;20492;-80
2022/07/09 03:45:22;;;;;;;1.80;1.63;;;18.40;56.80;;;;;;5039250;28;20819;-80
2022/07/09 03:47:50;;;;;;;2.27;1.63;;;18.40;56.30;;;;;;5039037;28;20456;-79
2022/07/09 03:50:19;;;;;;;2.30;2.10;;;18.40;56.70;;;;;;5044264;28;20459;-80
2022/07/09 03:52:47;;;;;;;2.93;1.60;;;18.40;56.60;;;;;;5041872;28;20467;-80
2022/07/09 03:55:15;;;;;;;1.73;1.63;;;18.40;58.30;;;;;;5040542;28;20447;-79
2022/07/09 03:57:45;;;;;;;2.30;1.57;;;18.40;56.70;;;;;;5042036;28;20454;-80
2022/07/09 04:00:14;;;;;;;3.07;1.67;;;18.40;58.60;;;;;;5041085;28;20543;-81
2022/07/09 04:02:43;;;;;;;1.70;1.57;;;18.40;55.90;;;;;;5039565;28;20577;-80
2022/07/09 04:05:11;;;;;;;4.70;1.83;;;18.40;58.20;;;;;;5043346;28;20471;-80
2022/07/09 04:07:40;;;;;;;2.33;1.73;;;18.30;58.30;;;;;;5041787;28;20988;-79
2022/07/09 04:10:08;;;;;;;1.97;1.70;;;18.30;58.30;;;;;;5040191;28;21157;-79
2022/07/09 04:12:37;;;;;;;3.60;1.70;;;18.30;58.70;;;;;;5043753;28;20855;-81
2022/07/09 04:15:07;;;;;;;1.90;1.80;;;18.30;59.40;;;;;;5039976;28;20475;-81
2022/07/09 04:17:36;;;;;;;2.03;1.93;;;18.30;57.80;;;;;;5044363;28;20449;-80
2022/07/09 04:20:04;;;;;;;1.50;1.40;;;18.30;63.00;;;;;;5045815;28;20467;-80
2022/07/09 04:22:33;;;;;;;2.47;2.27;;;18.30;57.90;;;;;;5040341;28;20491;-80
2022/07/09 04:25:01;;;;;;;1.90;1.67;;;18.30;60.80;;;;;;5037062;28;20479;-80
2022/07/09 04:27:29;;;;;;;3.93;2.13;;;18.30;59.70;;;;;;5043121;28;20838;-81
2022/07/09 04:29:57;;;;;;;1.63;1.53;;;18.30;59.90;;;;;;5045169;28;20470;-82
2022/07/09 04:32:27;;;;;;;2.00;1.80;;;18.30;60.80;;;;;;5042987;28;20594;-83
2022/07/09 04:34:55;;;;;;;2.90;1.63;;;18.30;62.20;;;;;;5043939;28;20451;-81
2022/07/09 04:37:23;;;;;;;2.10;1.70;;;18.30;61.30;;;;;;5028863;28;20467;-82
2022/07/09 04:39:52;;;;;;;1.80;1.70;;;18.30;62.70;;;;;;5044072;28;20467;-83
2022/07/09 04:42:20;;;;;;;3.57;1.80;;;18.30;63.50;;;;;;5040766;28;20479;-82
2022/07/09 04:44:48;;;;;;;2.70;1.90;;;18.30;62.50;;;;;;5043688;28;20470;-81
2022/07/09 04:47:17;;;;;;;2.40;2.20;;;18.40;62.50;;;;;;5044247;28;20477;-81
2022/07/09 04:49:46;;;;;;;2.53;1.70;;;18.30;60.60;;;;;;5042684;28;20482;-81
2022/07/09 04:52:17;;;;;;;1.63;1.53;;;18.30;65.40;;;;;;5047562;28;20483;-81
2022/07/09 04:54:45;;;;;;;2.37;1.73;;;18.30;65.40;;;;;;5043707;28;20436;-80
2022/07/09 04:57:13;;;;;;;2.27;1.70;;;18.30;64.30;;;;;;5043575;28;20459;-81
2022/07/09 04:59:42;;;;;;;2.53;1.90;;;18.30;62.90;;;;;;5044246;28;20444;-81
2022/07/09 05:02:10;;;;;;;4.40;2.00;;;18.30;65.40;;;;;;5043236;28;20467;-81
2022/07/09 05:04:38;;;;;;;2.50;2.30;;;18.40;84.40;;;;;;5045363;28;20529;-81
2022/07/09 05:07:08;;;;;;;3.93;2.17;;;18.40;62.70;;;;;;5043999;28;20466;-81
2022/07/09 05:09:36;;;;;;;2.13;1.90;;;18.40;64.60;;;;;;5042543;28;20997;-80
2022/07/09 05:12:04;;;;;;;2.10;1.93;;;18.40;66.80;;;;;;5043375;28;20479;-81
2022/07/09 05:14:33;;;;;;;3.33;1.97;;;18.40;64.00;;;;;;5024756;28;20854;-81
2022/07/09 05:17:01;;;;;;;2.60;2.40;;;18.50;66.50;;;;;;5063832;28;20481;-81
2022/07/09 05:19:29;;;;;;;2.07;1.87;;;18.50;68.40;;;;;;5042831;28;20446;-81
2022/07/09 05:21:58;;;;;;;3.10;2.10;;;18.60;66.80;;;;;;5045089;28;20471;-81
2022/07/09 05:24:27;;;;;;;2.20;2.00;;;18.60;74.90;;;;;;5044845;28;20537;-81
2022/07/09 05:26:56;;;;;;;2.70;2.27;;;18.60;68.10;;;;;;5040739;28;20459;-81
2022/07/09 05:29:26;;;;;;;2.03;1.90;;;18.60;67.90;;;;;;5046433;28;20536;-81
2022/07/09 05:31:54;;;;;;;4.57;2.50;;;18.60;69.00;;;;;;5040207;28;20509;-81
2022/07/09 05:34:22;;;;;;;2.57;2.33;;;18.60;67.00;;;;;;5043743;28;20462;-81
2022/07/09 05:36:51;;;;;;;2.37;1.93;;;18.60;69.60;;;;;;5042153;28;20876;-81
2022/07/09 05:39:20;;;;;;;2.43;2.00;;;18.60;70.70;;;;;;5044759;28;20460;-81
2022/07/09 05:41:49;;;;;;;3.10;2.03;;;18.70;72.70;;;;;;5047562;28;21077;-81
2022/07/09 05:44:17;;;;;;;2.67;2.47;;;18.70;73.10;;;;;;5045352;28;20549;-81
2022/07/09 05:46:51;;;;;;;6.23;2.50;;;18.70;73.10;;;;;;5045035;28;20448;-81
2022/07/09 05:49:20;;;;;;;2.27;2.10;;;18.80;74.30;;;;;;5046292;28;20951;-81
2022/07/09 05:51:48;;;;;;;4.10;2.40;;;18.80;85.90;;;;;;5047575;28;20494;-82
2022/07/09 05:54:16;;;;;;;4.40;2.33;;;18.80;75.90;;;;;;5040567;28;20436;-81
2022/07/09 05:56:44;;;;;;;3.27;2.53;;;18.90;79.40;;;;;;5042771;28;20458;-83
2022/07/09 05:59:14;;;;;;;4.07;2.20;;;19.00;77.80;;;;;;5047561;28;21246;-81
2022/07/09 06:01:42;;;;;;;2.03;1.90;;;19.00;76.10;;;;;;5045965;28;20467;-81
2022/07/09 06:04:11;;;;;;;2.27;2.03;;;19.00;77.20;;;;;;5039896;28;20473;-80
2022/07/09 06:06:39;;;;;;;2.43;2.23;;;19.10;76.90;;;;;;5046796;28;20451;-80
2022/07/09 06:09:07;;;;;;;2.63;2.43;;;19.10;75.10;;;;;;5044001;28;20459;-80
2022/07/09 06:11:36;;;;;;;3.07;2.57;;;19.20;76.60;;;;;;5045153;28;20546;-80
2022/07/09 06:14:04;;;;;;;2.27;1.70;;;19.20;75.60;;;;;;5045962;28;20499;-80
2022/07/09 06:16:34;;;;;;;4.10;2.23;;;19.20;76.20;;;;;;5042385;28;20459;-80
2022/07/09 06:19:02;;;;;;;2.57;2.37;;;19.30;79.70;;;;;;5039607;28;20480;-81
2022/07/09 06:21:30;;;;;;;1.70;1.60;;;19.30;78.60;;;;;;5050828;28;20482;-80
2022/07/09 06:23:58;;;;;;;2.50;2.20;;;19.30;78.50;;;;;;5047791;28;20491;-80
2022/07/09 06:26:26;;;;;;;1.87;1.77;;;19.40;77.10;;;;;;5045735;28;20455;-80
2022/07/09 06:28:55;;;;;;;3.40;1.60;;;19.40;78.40;;;;;;5040733;28;20436;-81
2022/07/09 06:31:23;;;;;;;2.10;1.93;;;19.50;83.30;;;;;;5043532;28;20448;-80
2022/07/09 06:33:53;;;;;;;1.83;1.60;;;19.50;81.90;;;;;;5070583;28;20628;-79
2022/07/09 06:36:27;;;;;;;1.60;1.50;;;19.60;78.60;;;;;;5044836;28;20455;-80
2022/07/09 06:41:41;;;;;;;3.40;1.80;;;19.60;79.20;;;;;;5043901;28;20742;-82
2022/07/09 06:44:09;;;;;;;2.57;2.00;;;19.60;79.60;;;;;;5046195;28;20486;-81
2022/07/09 06:46:38;;;;;;;3.73;1.90;;;19.70;78.80;;;;;;5044595;28;20458;-79
2022/07/09 06:49:07;;;;;;;1.70;1.60;;;19.80;78.90;;;;;;5046723;28;20459;-80
2022/07/09 06:51:36;;;;;;;3.33;1.90;;;19.80;81.70;;;;;;5043149;28;20482;-79
2022/07/09 06:54:04;;;;;;;3.37;1.70;;;19.90;83.90;;;;;;5044126;28;20451;-80
2022/07/09 06:56:32;;;;;;;1.70;1.60;;;19.90;82.80;;;;;;5040432;28;20535;-79
2022/07/09 06:59:01;;;;;;;2.17;1.93;;;20.00;84.40;;;;;;5039450;28;20460;-80
2022/07/09 07:01:29;;;;;;;1.70;1.60;;;20.10;85.20;;;;;;5045388;28;20955;-82
2022/07/09 07:03:57;;;;;;;2.47;1.70;;;20.20;87.50;;;;;;5041391;28;20505;-80
2022/07/09 07:06:27;;;;;;;2.03;1.80;;;20.20;83.40;;;;;;5044083;28;20209;-79
2022/07/09 07:08:55;;;;;;;1.87;1.73;;;20.30;89.00;;;;;;5041086;28;20460;-80
2022/07/09 07:11:23;;;;;;;4.80;2.10;;;20.40;88.30;;;;;;5041114;28;20464;-78
2022/07/09 07:13:51;;;;;;;1.90;1.70;;;20.50;87.80;;;;;;5038644;28;20463;-79
2022/07/09 07:16:19;;;;;;;1.43;1.30;;;20.60;90.00;;;;;;5038806;28;20447;-78
2022/07/09 07:18:48;;;;;;;2.60;1.70;;;20.70;89.70;;;;;;5040760;28;20959;-79
2022/07/09 07:21:16;;;;;;;2.47;1.90;;;20.70;89.50;;;;;;5038700;28;20514;-79
2022/07/09 07:23:46;;;;;;;2.73;1.97;;;20.80;88.00;;;;;;5042469;28;20559;-79
2022/07/09 07:26:14;;;;;;;1.60;1.50;;;20.80;90.00;;;;;;5035824;28;20436;-79
2022/07/09 07:28:42;;;;;;;2.53;1.50;;;20.90;88.60;;;;;;5033842;28;20538;-78
2022/07/09 07:31:11;;;;;;;1.67;1.57;;;20.90;90.60;;;;;;5042882;28;20540;-80
2022/07/09 07:33:39;;;;;;;3.33;1.97;;;20.80;87.40;;;;;;5046029;28;20593;-78
2022/07/09 07:36:08;;;;;;;2.60;1.80;;;20.80;87.80;;;;;;5041829;28;20458;-78
2022/07/09 07:38:36;;;;;;;3.97;1.50;;;20.90;86.60;;;;;;5042682;28;20531;-78
2022/07/09 07:41:06;;;;;;;1.70;1.60;;;20.90;90.50;;;;;;5048185;28;20946;-79
2022/07/09 07:43:34;;;;;;;3.60;1.60;;;21.00;90.40;;;;;;5034349;28;20865;-78
2022/07/09 07:46:02;;;;;;;2.77;1.80;;;21.00;91.20;;;;;;5042669;28;20979;-80
2022/07/09 07:48:35;;;;;;;3.20;1.40;;;21.10;92.80;;;;;;5045393;28;20460;-77
2022/07/09 07:51:05;;;;;;;3.17;1.73;;;21.10;92.20;;;;;;5036730;28;20506;-77
2022/07/09 07:53:34;;;;;;;2.23;1.40;;;21.60;89.80;;;;;;5039107;28;20546;-78
2022/07/09 07:56:02;;;;;;;2.33;1.20;;;21.30;90.80;;;;;;5040454;28;20443;-77
2022/07/09 07:58:32;;;;;;;2.27;1.70;;;21.30;91.30;;;;;;5035744;28;20463;-78
2022/07/09 08:01:00;;;;;;;2.23;1.30;;;21.40;91.30;;;;;;5030534;28;20460;-79
2022/07/09 08:03:28;;;;;;;2.17;1.40;;;21.40;90.40;;;;;;5042280;28;20491;-79
2022/07/09 08:06:00;;;;;;;1.50;1.40;;;21.40;90.40;;;;;;5040672;28;20844;-79
2022/07/09 08:08:28;;;;;;;3.40;1.50;;;21.50;91.00;;;;;;5039598;28;20486;-78
2022/07/09 08:10:57;;;;;;;2.37;1.40;;;21.60;91.70;;;;;;5038793;28;20483;-78
2022/07/09 08:13:28;;;;;;;2.37;1.20;;;21.70;92.50;;;;;;5036881;28;20518;-78
2022/07/09 08:15:58;;;;;;;2.47;2.07;;;21.70;92.40;;;;;;5041267;28;20533;-80
2022/07/09 08:18:26;;;;;;;1.33;1.20;;;21.80;91.60;;;;;;5047409;28;20448;-80
2022/07/09 08:20:54;;;;;;;2.30;1.37;;;21.90;93.70;;;;;;5041126;28;20455;-78
2022/07/09 08:23:23;;;;;;;1.40;1.00;;;21.90;93.60;;;;;;5042722;28;20889;-79
2022/07/09 08:25:51;;;;;;;1.40;1.07;;;22.00;94.80;;;;;;5040782;28;21024;-79
2022/07/09 08:28:19;;;;;;;1.20;1.13;;;22.10;95.20;;;;;;5044931;28;20502;-78
2022/07/09 08:30:47;;;;;;;1.73;1.00;;;22.10;96.10;;;;;;5044889;28;20462;-79
2022/07/09 08:33:17;;;;;;;0.93;0.93;;;22.10;94.70;;;;;;5048266;28;20495;-78
2022/07/09 08:35:45;;;;;;;1.60;1.20;;;22.10;94.20;;;;;;5026152;28;20954;-77
2022/07/09 08:38:13;;;;;;;1.40;1.00;;;22.00;95.10;;;;;;5044033;28;20459;-79
2022/07/09 08:40:42;;;;;;;1.73;0.90;;;22.00;95.50;;;;;;5038624;28;20462;-79
2022/07/09 08:43:11;;;;;;;4.00;1.20;;;22.10;95.70;;;;;;5056084;28;20474;-79
2022/07/09 08:45:39;;;;;;;1.33;1.00;;;22.10;96.20;;;;;;5037457;28;20517;-80
2022/07/09 08:48:08;;;;;;;1.10;1.10;;;22.30;97.90;;;;;;5044608;28;20443;-79
2022/07/09 08:50:40;;;;;;;1.13;0.93;;;22.30;97.70;;;;;;5052122;28;20451;-78
2022/07/09 08:53:10;;;;;;;1.77;1.10;;;22.40;96.80;;;;;;5044609;28;20623;-78
2022/07/09 08:55:39;;;;;;;1.27;1.00;;;22.40;96.50;;;;;;5046288;28;20440;-78
2022/07/09 08:58:07;;;;;;;2.27;2.07;;;22.50;98.80;;;;;;5049183;28;20479;-77
2022/07/09 09:00:36;;;;;;;1.47;0.90;;;22.50;98.80;;;;;;5047542;28;20442;-77
2022/07/09 09:03:04;;;;;;;1.43;0.90;;;22.50;99.10;;;;;;5047463;28;20468;-78
2022/07/09 09:05:32;;;;;;;1.00;0.90;;;22.60;99.90;;;;;;5046682;28;20482;-78
2022/07/09 09:08:18;;;;;;;2.83;1.00;;;22.60;99.40;;;;;;5047865;28;20464;-79
2022/07/09 09:10:47;;;;;;;1.27;0.80;;;22.70;97.10;;;;;;5049103;28;20974;-78
2022/07/09 09:13:16;;;;;;;1.03;0.83;;;22.80;97.90;;;;;;5046484;28;20475;-78
2022/07/09 09:15:45;;;;;;;1.73;0.90;;;22.90;98.80;;;;;;5042125;28;20489;-79
2022/07/09 09:18:13;;;;;;;0.80;0.80;;;22.90;98.00;;;;;;5042624;28;20487;-78
2022/07/09 09:20:46;;;;;;;1.77;1.00;;;22.90;97.80;;;;;;5044224;28;20518;-78
2022/07/09 09:23:18;;;;;;;1.20;1.00;;;22.90;97.10;;;;;;5047382;28;20575;-78
2022/07/09 09:25:46;;;;;;;1.37;0.93;;;22.90;96.10;;;;;;5040776;28;20484;-78
2022/07/09 09:28:15;;;;;;;1.87;0.90;;;22.90;98.50;;;;;;5034308;28;20459;-84
2022/07/09 09:30:44;;;;;;;1.30;0.80;;;23.00;99.90;;;;;;5047100;28;20454;-83
2022/07/09 09:33:18;;;;;;;1.10;1.00;;;23.10;99.90;;;;;;5028181;28;20488;-83
2022/07/09 09:35:46;;;;;;;1.00;0.90;;;23.10;99.80;;;;;;5049687;28;20560;-82
2022/07/09 09:38:14;;;;;;;1.50;1.23;;;23.10;99.90;;;;;;5050495;28;20486;-80
2022/07/09 09:40:47;;;;;;;1.97;0.90;;;23.10;99.90;;;;;;5046099;28;20441;-81
2022/07/09 09:43:22;;;;;;;0.97;0.80;;;23.20;99.00;;;;;;5059388;28;20494;-80
2022/07/09 09:45:52;;;;;;;1.00;0.90;;;23.20;96.90;;;;;;5041683;28;20572;-79
2022/07/09 09:48:22;;;;;;;2.07;1.20;;;23.20;99.90;;;;;;5035268;28;20505;-79
2022/07/09 09:50:56;;;;;;;1.73;1.00;;;23.20;98.90;;;;;;5038616;28;20448;-80
2022/07/09 09:53:24;;;;;;;1.07;0.80;;;23.20;98.50;;;;;;5042355;28;20590;-82
2022/07/09 09:55:55;;;;;;;1.00;0.90;;;23.20;99.20;;;;;;5044846;28;20491;-81
2022/07/09 09:58:24;;;;;;;1.53;0.70;;;23.30;99.40;;;;;;5042104;28;21026;-81
2022/07/09 10:00:53;;;;;;;0.90;0.90;;;23.40;99.90;;;;;;5039833;28;20451;-79
2022/07/09 10:03:22;;;;;;;0.90;0.90;;;23.50;99.80;;;;;;5042173;28;20491;-81
2022/07/09 10:05:51;;;;;;;0.70;0.67;;;23.50;96.40;;;;;;5043521;28;20480;-79
2022/07/09 10:08:19;;;;;;;0.97;0.83;;;23.60;98.50;;;;;;5043280;28;20453;-78
2022/07/09 10:10:51;;;;;;;1.00;0.90;;;23.50;97.50;;;;;;5041631;28;20450;-81
2022/07/09 10:13:22;;;;;;;0.80;0.80;;;23.50;96.40;;;;;;5038422;28;20475;-79
2022/07/09 10:15:51;;;;;;;1.10;0.60;;;23.50;94.50;;;;;;5042050;28;20455;-80
2022/07/09 10:18:20;;;;;;;0.70;0.70;;;23.50;94.70;;;;;;5042027;28;20459;-79
2022/07/09 10:20:49;;;;;;;1.23;0.90;;;23.60;97.00;;;;;;5043944;28;20467;-78
2022/07/09 10:23:24;;;;;;;1.57;0.90;;;23.70;98.20;;;;;;5037087;28;20498;-79
2022/07/09 10:25:55;;;;;;;1.10;0.90;;;23.70;97.50;;;;;;5046658;28;20478;-79
2022/07/09 10:28:26;;;;;;;1.37;0.93;;;23.70;99.90;;;;;;5049017;28;20444;-78
2022/07/09 10:30:54;;;;;;;2.70;0.80;;;23.70;99.90;;;;;;5048120;28;20467;-80
2022/07/09 10:33:24;;;;;;;1.13;0.97;;;23.80;99.70;;;;;;5048504;28;20472;-78
2022/07/09 10:35:54;;;;;;;0.63;0.63;;;23.80;96.70;;;;;;5045478;28;20947;-81
2022/07/09 10:38:24;;;;;;;0.60;0.60;;;23.80;94.50;;;;;;5039349;28;20483;-81
2022/07/09 10:41:00;;;;;;;1.93;0.77;;;23.70;95.10;;;;;;5041397;28;20451;-80
2022/07/09 10:43:45;;;;;;;1.10;0.97;;;23.80;93.90;;;;;;5043683;28;20483;-82
2022/07/09 10:46:15;;;;;;;0.97;0.70;;;23.70;92.00;;;;;;5037986;28;20490;-84
2022/07/09 10:48:45;;;;;;;1.50;0.80;;;23.80;92.60;;;;;;5042486;28;20455;-82
2022/07/09 10:51:19;;;;;;;0.83;0.83;;;23.90;95.10;;;;;;5039778;28;20448;-85
2022/07/09 10:53:47;;;;;;;2.07;0.83;;;24.00;96.00;;;;;;5039250;28;20454;-83
2022/07/09 10:56:18;;;;;;;6.93;1.90;;;24.10;99.90;;;;;;5036884;28;20451;-83
2022/07/09 10:58:49;;;;;;;1.93;1.13;;;24.10;98.50;;;;;;5038025;28;20609;-84
2022/07/09 11:01:21;;;;;;;0.93;0.90;;;24.20;99.90;;;;;;5048103;28;20443;-84
2022/07/09 11:03:50;;;;;;;1.97;1.00;;;24.30;99.90;;;;;;5045073;28;20478;-84
2022/07/09 11:06:19;;;;;;;1.30;1.00;;;24.40;99.80;;;;;;5036658;28;20504;-84
2022/07/09 11:08:47;;;;;;;3.03;1.30;;;24.40;99.80;;;;;;5043656;28;20439;-83
2022/07/09 11:11:21;;;;;;;4.73;1.40;;;24.30;99.90;;;;;;5046902;28;20455;-84
2022/07/09 11:13:54;;;;;;;2.10;1.10;;;24.40;99.90;;;;;;5041816;28;20451;-83
2022/07/09 11:16:23;;;;;;;1.73;1.17;;;24.30;99.90;;;;;;5037946;28;20444;-83
2022/07/09 11:18:53;;;;;;;0.80;0.80;;;24.40;99.90;;;;;;5034828;28;21725;-82
2022/07/09 11:21:23;;;;;;;1.30;1.20;;;24.30;99.90;;;;;;5039527;28;20431;-82
2022/07/09 11:23:51;;;;;;;1.40;1.10;;;24.30;99.60;;;;;;5044248;28;20544;-82
2022/07/09 11:26:20;;;;;;;1.80;1.37;;;24.40;99.90;;;;;;5035138;28;20478;-81
2022/07/09 11:28:50;;;;;;;1.13;1.03;;;24.30;99.90;;;;;;5040506;28;20459;-82
2022/07/09 11:31:21;;;;;;;1.30;1.00;;;24.30;99.90;;;;;;5042680;28;21259;-82
2022/07/09 11:36:37;;;;;;;2.97;1.00;;;24.20;99.90;;;;;;5036587;28;20466;-82
2022/07/09 11:39:05;;;;;;;1.43;1.20;;;24.20;99.90;;;;;;5041717;28;20466;-82
2022/07/09 11:41:41;;;;;;;1.10;1.00;;;24.20;99.90;;;;;;5040152;28;20451;-82
2022/07/09 11:44:11;;;;;;;1.20;1.10;;;24.20;99.90;;;;;;5038519;28;20582;-81
2022/07/09 11:46:41;;;;;;;1.30;1.20;;;24.20;99.90;;;;;;5024620;28;20589;-83
2022/07/09 11:49:16;;;;;;;1.73;1.10;;;24.20;99.90;;;;;;5037292;28;20491;-81
2022/07/09 11:51:45;;;;;;;1.50;1.23;;;24.30;99.90;;;;;;5040203;28;20454;-81
2022/07/09 11:54:13;;;;;;;2.30;1.13;;;24.40;99.90;;;;;;5044056;28;20207;-81
2022/07/09 11:56:44;;;;;;;1.00;1.00;;;24.40;99.90;;;;;;5043698;28;20455;-81
2022/07/09 11:59:12;;;;;;;1.37;1.03;;;24.40;99.90;;;;;;5039555;28;20473;-81
2022/07/09 12:01:42;;;;;;;2.57;1.30;;;24.40;99.90;;;;;;5043647;28;20509;-82
2022/07/09 12:04:19;;;;;;;1.00;1.00;;;24.40;99.90;;;;;;5024273;28;20456;-82
2022/07/09 12:06:49;;;;;;;1.20;1.00;;;24.40;99.90;;;;;;5041581;28;20486;-82
2022/07/09 12:09:30;;;;;;;1.23;0.90;;;24.40;99.90;;;;;;5042389;28;20462;-81
2022/07/09 12:11:59;;;;;;;1.30;1.00;;;24.40;99.90;;;;;;5039934;28;20435;-83
2022/07/09 12:14:28;;;;;;;1.27;1.17;;;24.40;99.90;;;;;;5043014;28;20522;-82
2022/07/09 12:16:58;;;;;;;0.87;0.83;;;24.50;99.90;;;;;;5041553;28;20972;-82
2022/07/09 12:19:26;;;;;;;1.57;0.90;;;24.50;99.90;;;;;;5040700;28;20470;-82
2022/07/09 12:21:55;;;;;;;2.10;1.03;;;24.50;99.90;;;;;;5042561;28;20496;-82
2022/07/09 12:24:26;;;;;;;0.93;0.83;;;24.60;99.90;;;;;;5047120;28;20471;-83
2022/07/09 12:26:54;;;;;;;1.80;1.20;;;24.60;99.90;;;;;;5042511;28;20450;-82
2022/07/09 12:29:43;;;;;;;0.83;0.83;;;24.70;99.90;;;;;;5044219;28;20200;-79
2022/07/09 12:32:13;;;;;;;1.03;0.90;;;24.70;99.90;;;;;;5040953;28;20495;-79
2022/07/09 12:34:41;;;;;;;1.03;0.80;;;24.70;99.90;;;;;;5043532;28;20575;-79
2022/07/09 12:37:10;;;;;;;1.27;0.90;;;24.70;99.90;;;;;;5043137;28;20928;-79
2022/07/09 12:39:38;;;;;;;2.40;0.90;;;24.70;99.90;;;;;;5045329;28;20461;-80
2022/07/09 12:42:06;;;;;;;3.87;1.00;;;24.60;99.90;;;;;;5042370;28;20470;-82
2022/07/09 12:44:34;;;;;;;1.07;0.90;;;24.60;99.90;;;;;;5042979;28;20475;-81
2022/07/09 12:47:03;;;;;;;1.17;0.80;;;24.60;99.90;;;;;;5049803;28;20470;-81
2022/07/09 12:49:32;;;;;;;1.97;1.10;;;24.60;99.90;;;;;;5045145;28;20475;-82
2022/07/09 12:52:01;;;;;;;1.50;1.40;;;24.60;99.90;;;;;;5043816;28;20629;-81
2022/07/09 12:54:29;;;;;;;2.60;1.10;;;24.60;99.90;;;;;;5044057;28;22566;-81
2022/07/09 12:56:57;;;;;;;1.13;1.00;;;24.70;99.90;;;;;;5047018;28;20536;-83
2022/07/09 12:59:41;;;;;;;1.10;1.00;;;24.70;99.90;;;;;;5048575;28;20452;-83
2022/07/09 13:02:09;;;;;;;0.80;0.80;;;24.70;99.90;;;;;;5048363;28;20475;-82
2022/07/09 13:04:39;;;;;;;1.30;1.20;;;24.70;99.90;;;;;;5048298;28;20450;-82